Aeroporto :
LOGIN :

Iscrizione | Disclaimer

   EN    FR    IT 

 










Sommario :    VFR   VFR Marginale   IFR   IFR Intensivo   IFR Molto Intensivo
Visibilità : 
Base nubi : 
>= 8 km
>= 3000ft
5 / 8 km
1000 / 3000 ft
1500m / 5 km
500 / 1000 ft
800 / 1500m
200 / 500 ft
< 800m
< 200 ft
Simboli :   Temporali  Nebbia  Neve Forte  Precipitazioni Forti  Vento > 20 kt
SIGMETs :   Varie  Temporali  Ghiacco  Turbolenza  Onda orograficha  Ceneri Vulcaniche






- Altitudine del aeroporto : 187 ft


ETNW - Wunstorf AB

ULTIMO METAR :
  • 171220Z 08006KT 9999 FEW080 BKN100 OVC150 05/03 Q1012 BLU

METARs OBSOLETI :
  • 171120Z 08005KT 9999 FEW010 BKN100 OVC200 04/03 Q1012 BLU
  • 171020Z 08004KT 8000 SCT120 BKN230 03/02 Q1013 BLU+
  • 170931Z VRB02KT 5000 BR FEW140 BKN230 02/01 Q1014 WHT

TAF TAF ETNW
Valido dal 17 a 12 ore il 18 a 12 ore UTC


171112Z 1712/1812 08005KT 8000 NSW SCT020 BKN120
BECMG 1714/1716 04008KT 4000 -RADZ BKN007 BKN015
TEMPO 1716/1808 02010G20KT 2000 DZRA BKN003 OVC006
PROB30 1801/1807 VRB03KT 0500 FG BKN001 BY ETGL



MetMap, La meteo Aeronautica in un colpo d'occhio ! - Copyright ORBIFLY Dicembre 2007 - Disclaimer

ORBIFLY MET'MAP TEAM :

Programmazione e sviluppo : Alexandra Zaïnal
Concezione e sviluppo : Baudouin d'Aumeries
Co-Programmazione e sviluppo : Marc-Olivier Méhu
Supporto tecnico e logistico : Manuel Goepfert
Aiuto per la traduzione : Arnaldo La Scala

Contatto : metmap@orbifly.com




FONTI E CREDITI :

   NOAA